createdAt,value
2022-12-31T00:00:43.947Z,96778.09
2022-12-31T00:02:51.910Z,96786.81
2022-12-31T00:04:58.012Z,96786.81
2022-12-31T00:07:03.216Z,96778.63
2022-12-31T00:09:11.530Z,96785.50
2022-12-31T00:11:17.396Z,96781.00
2022-12-31T00:13:22.798Z,96764.38
2022-12-31T00:15:27.985Z,96776.50
2022-12-31T00:17:33.383Z,96779.69
2022-12-31T00:19:41.457Z,96776.25
2022-12-31T00:21:47.210Z,96779.41
2022-12-31T00:23:52.780Z,96773.56
2022-12-31T00:25:57.984Z,96767.25
2022-12-31T00:28:03.261Z,96766.16
2022-12-31T00:30:12.425Z,96766.97
2022-12-31T00:32:17.624Z,96771.19
2022-12-31T00:34:22.907Z,96777.25
2022-12-31T00:36:34.738Z,96776.47
2022-12-31T00:38:41.285Z,96777.53
2022-12-31T00:40:46.549Z,96786.22
2022-12-31T00:42:51.823Z,96790.44
2022-12-31T00:44:56.998Z,96785.44
2022-12-31T00:47:02.364Z,96793.34
2022-12-31T00:49:07.939Z,96789.13
2022-12-31T00:51:17.967Z,96794.69
2022-12-31T00:53:27.105Z,96791.53
2022-12-31T00:55:34.263Z,96798.66
2022-12-31T00:57:39.459Z,96803.16
2022-12-31T00:59:44.715Z,96803.69
2022-12-31T01:01:50.190Z,96815.31
2022-12-31T01:04:00.562Z,96826.91
2022-12-31T01:06:05.850Z,96828.78
2022-12-31T01:08:11.301Z,96835.91
2022-12-31T01:10:39.213Z,96827.19
2022-12-31T01:12:44.626Z,96825.38
2022-12-31T01:14:49.906Z,96831.69
2022-12-31T01:16:56.958Z,96839.63
2022-12-31T01:19:06.149Z,96841.47
2022-12-31T01:21:14.568Z,96840.38
2022-12-31T01:23:19.780Z,96847.53
2022-12-31T01:25:27.787Z,96846.47
2022-12-31T01:27:33.017Z,96855.16
2022-12-31T01:29:38.406Z,96867.03
2022-12-31T01:31:44.246Z,96854.88
2022-12-31T01:33:50.403Z,96859.63
2022-12-31T01:35:55.620Z,96866.22
2022-12-31T01:38:00.997Z,96862.22
2022-12-31T01:40:06.692Z,96870.13
2022-12-31T01:42:15.653Z,96857.44
2022-12-31T01:44:52.493Z,96865.59
2022-12-31T01:47:03.392Z,96868.47
2022-12-31T01:49:19.822Z,96856.31
2022-12-31T01:51:28.450Z,96855.75
2022-12-31T01:53:34.773Z,96858.09
2022-12-31T01:55:49.320Z,96867.06
2022-12-31T01:58:04.004Z,96871.53
2022-12-31T02:00:11.985Z,96869.88
2022-12-31T02:02:19.358Z,96869.88
2022-12-31T02:04:28.645Z,96871.97
2022-12-31T02:06:42.075Z,96874.03
2022-12-31T02:08:47.785Z,96880.09
2022-12-31T02:10:53.031Z,96880.06
2022-12-31T02:13:01.767Z,96873.41
2022-12-31T02:15:08.975Z,96869.97
2022-12-31T02:17:26.539Z,96867.53
2022-12-31T02:20:22.060Z,96855.34
2022-12-31T02:22:51.775Z,96855.56
2022-12-31T02:25:39.171Z,96865.34
2022-12-31T02:28:02.049Z,96861.09
2022-12-31T02:30:18.010Z,96863.69
2022-12-31T02:32:32.109Z,96861.00
2022-12-31T02:34:44.496Z,96868.59
2022-12-31T02:36:53.606Z,96873.34
2022-12-31T02:39:01.304Z,96864.56
2022-12-31T02:41:06.661Z,96865.59
2022-12-31T02:43:11.881Z,96868.19
2022-12-31T02:45:29.650Z,96873.69
2022-12-31T02:47:52.852Z,96873.66
2022-12-31T02:50:30.158Z,96875.44
2022-12-31T02:52:54.088Z,96873.81
2022-12-31T02:55:13.593Z,96875.91
2022-12-31T02:57:31.703Z,96879.56
2022-12-31T02:59:56.081Z,96876.38
2022-12-31T03:02:16.690Z,96870.78
2022-12-31T03:04:37.389Z,96876.00
2022-12-31T03:06:45.044Z,96881.81
2022-12-31T03:09:02.700Z,96876.75
2022-12-31T03:11:28.330Z,96873.53
2022-12-31T03:13:31.161Z,96882.75
2022-12-31T03:15:37.522Z,96890.13
2022-12-31T03:17:45.386Z,96888.00
2022-12-31T03:20:03.490Z,96887.44
2022-12-31T03:22:23.054Z,96892.94
2022-12-31T03:24:41.328Z,96895.31
2022-12-31T03:26:46.565Z,96892.38
2022-12-31T03:28:52.763Z,96895.53
2022-12-31T03:31:01.960Z,96902.41
2022-12-31T03:33:11.740Z,96906.34
2022-12-31T03:35:20.375Z,96913.22
2022-12-31T03:37:25.591Z,96907.66
2022-12-31T03:39:30.836Z,96902.06
2022-12-31T03:41:36.146Z,96910.50
2022-12-31T03:43:41.921Z,96903.06
2022-12-31T03:45:47.482Z,96910.72
2022-12-31T03:47:53.253Z,96903.84
2022-12-31T03:50:01.653Z,96902.78
2022-12-31T03:52:08.761Z,96913.09
2022-12-31T03:54:14.037Z,96906.75
2022-12-31T03:56:19.239Z,96913.88
2022-12-31T03:58:25.559Z,96919.97
2022-12-31T04:00:31.469Z,96920.75
2022-12-31T04:02:36.820Z,96935.59
2022-12-31T04:04:42.136Z,96923.13
2022-12-31T04:06:50.218Z,96930.28
2022-12-31T04:08:55.406Z,96928.69
2022-12-31T04:11:00.684Z,96937.44
2022-12-31T04:13:05.929Z,96937.72
2022-12-31T04:15:15.611Z,96929.75
2022-12-31T04:17:20.869Z,96938.78
2022-12-31T04:19:26.223Z,96933.47
2022-12-31T04:21:35.005Z,96924.75
2022-12-31T04:23:43.221Z,96928.47
2022-12-31T04:25:48.830Z,96928.75
2022-12-31T04:27:54.075Z,96932.78
2022-12-31T04:29:59.295Z,96931.47
2022-12-31T04:32:05.036Z,96925.66
2022-12-31T04:34:10.328Z,96930.94
2022-12-31T04:36:15.624Z,96934.69
2022-12-31T04:38:20.904Z,96938.91
2022-12-31T04:40:28.914Z,96947.94
2022-12-31T04:42:34.176Z,96947.94
2022-12-31T04:44:39.804Z,96945.78
2022-12-31T04:46:45.038Z,96945.78
2022-12-31T04:48:50.550Z,96941.78
2022-12-31T04:50:55.915Z,96946.78
2022-12-31T04:53:01.190Z,96944.34
2022-12-31T04:55:06.956Z,96939.59
2022-12-31T04:57:14.835Z,96936.34
2022-12-31T04:59:20.047Z,96946.09
2022-12-31T05:01:26.091Z,96947.41
2022-12-31T05:03:32.088Z,96941.81
2022-12-31T05:05:42.892Z,96935.97
2022-12-31T05:07:48.114Z,96945.50
2022-12-31T05:09:53.317Z,96956.59
2022-12-31T05:11:58.515Z,96952.59
2022-12-31T05:14:06.551Z,96947.78
2022-12-31T05:16:12.888Z,96956.53
2022-12-31T05:18:18.397Z,96958.91
2022-12-31T05:20:23.659Z,96965.50
2022-12-31T05:22:31.798Z,96973.94
2022-12-31T05:24:37.105Z,96982.38
2022-12-31T05:26:42.428Z,96970.72
2022-12-31T05:28:47.846Z,96976.50
2022-12-31T05:30:56.365Z,96970.16
2022-12-31T05:33:01.669Z,96973.31
2022-12-31T05:35:08.344Z,96975.69
2022-12-31T05:37:13.727Z,96974.59
2022-12-31T05:39:19.280Z,96976.47
2022-12-31T05:41:24.508Z,96988.66
2022-12-31T05:43:30.890Z,96982.25
2022-12-31T05:45:36.147Z,96984.63
2022-12-31T05:47:44.126Z,96991.50
2022-12-31T05:49:49.442Z,96990.44
2022-12-31T05:51:54.764Z,96980.63
2022-12-31T05:53:59.982Z,96983.78
2022-12-31T05:56:05.347Z,96992.22
2022-12-31T05:58:10.582Z,96989.59
2022-12-31T06:00:18.355Z,96987.72
2022-12-31T06:02:24.195Z,96977.91
2022-12-31T06:04:32.280Z,96987.16
2022-12-31T06:06:37.712Z,96988.44
2022-12-31T06:08:43.038Z,96990.78
2022-12-31T06:10:48.288Z,96987.03
2022-12-31T06:12:53.635Z,96990.16
2022-12-31T06:14:59.015Z,96992.25
2022-12-31T06:17:05.297Z,96999.63
2022-12-31T06:19:10.680Z,96995.31
2022-12-31T06:21:18.703Z,97003.75
2022-12-31T06:23:23.929Z,97008.22
2022-12-31T06:25:29.276Z,97007.66
2022-12-31T06:27:34.515Z,97021.41
2022-12-31T06:29:39.868Z,97013.97
2022-12-31T06:31:45.109Z,97010.72
2022-12-31T06:33:50.354Z,97015.75
2022-12-31T06:35:59.652Z,97022.91
2022-12-31T06:38:07.934Z,97024.19
2022-12-31T06:40:14.953Z,97023.13
2022-12-31T06:42:20.229Z,97025.97
2022-12-31T06:44:25.815Z,97016.19
2022-12-31T06:46:31.138Z,97015.88
2022-12-31T06:48:36.783Z,97017.16
2022-12-31T06:50:42.433Z,97017.16
2022-12-31T06:52:47.624Z,97019.81
2022-12-31T06:54:56.717Z,97015.88
2022-12-31T06:57:03.096Z,97029.16
2022-12-31T06:59:09.234Z,97024.91
2022-12-31T07:01:36.145Z,97024.44
2022-12-31T07:03:50.036Z,97028.16
2022-12-31T07:06:04.240Z,97024.72
2022-12-31T07:08:28.846Z,97019.66
2022-12-31T07:10:51.216Z,97035.59
2022-12-31T07:13:30.828Z,97032.94
2022-12-31T07:15:59.128Z,97024.19
2022-12-31T07:18:17.815Z,97027.63
2022-12-31T07:20:24.680Z,97034.50
2022-12-31T07:22:30.987Z,97030.03
2022-12-31T07:24:37.392Z,97030.50
2022-12-31T07:27:24.093Z,97032.66
2022-12-31T07:29:49.377Z,97023.91
2022-12-31T07:32:07.447Z,97025.25
2022-12-31T07:34:26.666Z,97030.06
2022-12-31T07:37:04.386Z,97033.03
2022-12-31T07:39:17.360Z,97041.25
2022-12-31T07:41:43.815Z,97043.13
2022-12-31T07:44:07.761Z,97054.81
2022-12-31T07:46:22.420Z,97057.47
2022-12-31T07:48:31.104Z,97054.81
2022-12-31T07:50:37.549Z,97063.25
2022-12-31T07:52:44.247Z,97062.47
2022-12-31T07:54:49.699Z,97065.63
2022-12-31T07:56:55.635Z,97061.13
2022-12-31T07:59:24.260Z,97069.88
2022-12-31T08:01:43.550Z,97061.91
2022-12-31T08:04:00.378Z,97058.75
2022-12-31T08:06:18.225Z,97079.19
2022-12-31T08:08:39.655Z,97074.69
2022-12-31T08:10:59.589Z,97073.09
2022-12-31T08:13:11.513Z,97080.28
2022-12-31T08:15:28.478Z,97088.47
2022-12-31T08:17:36.125Z,97088.47
2022-12-31T08:19:42.771Z,97096.44
2022-12-31T08:22:07.298Z,97110.00
2022-12-31T08:24:30.093Z,97110.00
2022-12-31T08:26:52.830Z,97112.94
2022-12-31T08:29:08.174Z,97117.25
2022-12-31T08:31:24.296Z,97107.91
2022-12-31T08:33:41.278Z,97107.63
2022-12-31T08:36:10.548Z,97108.44
2022-12-31T08:38:31.424Z,97102.03
2022-12-31T08:40:54.616Z,97105.22
2022-12-31T08:43:21.380Z,97105.41
2022-12-31T08:45:33.603Z,97107.19
2022-12-31T08:48:01.233Z,97109.03
2022-12-31T08:50:08.740Z,97115.06
2022-12-31T08:52:25.561Z,97111.53
2022-12-31T08:54:32.289Z,97106.94
2022-12-31T08:56:50.450Z,97110.81
2022-12-31T08:59:11.263Z,97111.47
2022-12-31T09:01:24.489Z,97115.56
2022-12-31T09:03:59.727Z,97111.38
2022-12-31T09:06:19.420Z,97113.00
2022-12-31T09:08:38.695Z,97126.81
2022-12-31T09:10:54.673Z,97127.63
2022-12-31T09:13:17.486Z,97132.19
2022-12-31T09:15:33.005Z,97125.69
2022-12-31T09:17:49.242Z,97129.03
2022-12-31T09:19:58.567Z,97127.66
2022-12-31T09:22:04.852Z,97124.72
2022-12-31T09:24:13.808Z,97125.78
2022-12-31T09:26:42.093Z,97125.00
2022-12-31T09:28:58.495Z,97129.81
2022-12-31T09:31:14.830Z,97122.13
2022-12-31T09:33:43.218Z,97117.72
2022-12-31T09:35:58.106Z,97113.75
2022-12-31T09:38:13.442Z,97117.00
2022-12-31T09:40:57.915Z,97120.56
2022-12-31T09:43:33.495Z,97124.38
2022-12-31T09:46:29.014Z,97114.66
2022-12-31T09:48:59.520Z,97109.09
2022-12-31T09:51:30.720Z,97107.25
2022-12-31T09:54:12.654Z,97110.22
2022-12-31T09:56:29.406Z,97109.09
2022-12-31T09:58:52.756Z,97113.34
2022-12-31T10:01:07.538Z,97116.78
2022-12-31T10:03:54.175Z,97115.41
2022-12-31T10:06:18.980Z,97127.63
2022-12-31T10:08:50.942Z,97124.38
2022-12-31T10:11:02.408Z,97118.78
2022-12-31T10:13:38.836Z,97114.25
2022-12-31T10:16:22.308Z,97121.16
2022-12-31T10:18:55.813Z,97114.75
2022-12-31T10:21:31.046Z,97117.72
2022-12-31T10:24:15.828Z,97116.59
2022-12-31T10:26:54.627Z,97116.13
2022-12-31T10:29:18.077Z,97113.75
2022-12-31T10:31:42.308Z,97112.28
2022-12-31T10:34:07.264Z,97112.00
2022-12-31T10:36:23.623Z,97103.72
2022-12-31T10:38:48.358Z,97104.50
2022-12-31T10:41:51.810Z,97104.50
2022-12-31T10:44:46.599Z,97101.84
2022-12-31T10:47:33.359Z,97104.78
2022-12-31T10:50:34.771Z,97105.88
2022-12-31T10:53:26.603Z,97107.75
2022-12-31T10:56:40.034Z,97103.22
2022-12-31T10:59:54.383Z,97097.41
2022-12-31T11:02:28.462Z,97093.47
2022-12-31T11:05:34.566Z,97099.59
2022-12-31T11:08:22.378Z,97098.28
2022-12-31T11:11:11.442Z,97107.03
2022-12-31T11:14:03.032Z,97110.00
2022-12-31T11:16:43.270Z,97101.53
2022-12-31T11:19:04.221Z,97103.09
2022-12-31T11:21:43.558Z,97107.34
2022-12-31T11:24:11.489Z,97107.84
2022-12-31T11:26:31.564Z,97105.97
2022-12-31T11:29:05.358Z,97103.03
2022-12-31T11:31:21.262Z,97107.34
2022-12-31T11:33:50.625Z,97100.66
2022-12-31T11:36:20.116Z,97101.13
2022-12-31T11:38:31.950Z,97097.91
2022-12-31T11:41:02.903Z,97095.75
2022-12-31T11:43:24.125Z,97087.66
2022-12-31T11:45:54.997Z,97089.47
2022-12-31T11:50:53.903Z,97102.34
2022-12-31T11:53:24.097Z,97100.47
2022-12-31T11:55:56.794Z,97100.47
2022-12-31T11:58:16.258Z,97089.56
2022-12-31T12:00:25.289Z,97087.41
2022-12-31T12:02:35.524Z,97084.94
2022-12-31T12:04:41.099Z,97092.81
2022-12-31T12:06:46.533Z,97094.88
2022-12-31T12:08:53.227Z,97086.84
2022-12-31T12:11:08.010Z,97085.16
2022-12-31T12:13:24.323Z,97081.94
2022-12-31T12:15:35.125Z,97080.53
2022-12-31T12:17:41.202Z,97077.78
2022-12-31T12:19:50.266Z,97088.13
2022-12-31T12:21:57.065Z,97083.78
2022-12-31T12:24:07.909Z,97077.06
2022-12-31T12:26:36.736Z,97068.50
2022-12-31T12:28:49.320Z,97082.47
2022-12-31T12:31:01.629Z,97077.06
2022-12-31T12:33:08.561Z,97074.78
2022-12-31T12:35:18.633Z,97064.81
2022-12-31T12:37:35.436Z,97061.72
2022-12-31T12:39:40.705Z,97055.69
2022-12-31T12:41:46.029Z,97054.78
2022-12-31T12:44:05.150Z,97064.81
2022-12-31T12:46:24.103Z,97055.47
2022-12-31T12:48:39.828Z,97053.78
2022-12-31T12:50:50.054Z,97044.56
2022-12-31T12:53:22.767Z,97047.28
2022-12-31T12:55:39.615Z,97044.56
2022-12-31T12:57:59.103Z,97048.97
2022-12-31T13:00:20.351Z,97052.59
2022-12-31T13:03:21.899Z,97053.53
2022-12-31T13:05:43.218Z,97045.75
2022-12-31T13:08:02.003Z,97048.25
2022-12-31T13:10:29.532Z,97038.56
2022-12-31T13:13:22.084Z,97038.78
2022-12-31T13:15:21.961Z,97041.13
2022-12-31T13:18:02.207Z,97045.34
2022-12-31T13:20:22.346Z,97037.84
2022-12-31T13:22:35.331Z,97043.94
2022-12-31T13:25:00.343Z,97037.84
2022-12-31T13:27:15.764Z,97035.19
2022-12-31T13:29:27.550Z,97034.41
2022-12-31T13:31:40.541Z,97034.41
2022-12-31T13:33:49.747Z,97032.63
2022-12-31T13:36:00.025Z,97031.56
2022-12-31T13:38:14.830Z,97024.03
2022-12-31T13:40:30.221Z,97028.59
2022-12-31T13:42:46.678Z,97027.19
2022-12-31T13:44:59.020Z,97029.25
2022-12-31T13:47:15.947Z,97027.34
2022-12-31T13:49:29.808Z,97031.44
2022-12-31T13:51:46.178Z,97035.97
2022-12-31T13:54:02.350Z,97033.28
2022-12-31T13:56:18.364Z,97036.75
2022-12-31T13:58:36.336Z,97031.75
2022-12-31T14:00:50.273Z,97030.16
2022-12-31T14:03:14.242Z,97033.44
2022-12-31T14:05:28.405Z,97035.44
2022-12-31T14:07:45.761Z,97053.13
2022-12-31T14:09:51.562Z,97052.16
2022-12-31T14:12:28.877Z,97049.31
2022-12-31T14:14:49.001Z,97047.28
2022-12-31T14:17:02.158Z,97041.44
2022-12-31T14:19:32.345Z,97048.16
2022-12-31T14:21:52.021Z,97049.34
2022-12-31T14:24:15.756Z,97050.72
2022-12-31T14:26:29.290Z,97045.25
2022-12-31T14:28:46.880Z,97054.91
2022-12-31T14:31:05.596Z,97050.50
2022-12-31T14:33:39.290Z,97043.72
2022-12-31T14:36:12.684Z,97052.25
2022-12-31T14:38:36.166Z,97056.59
2022-12-31T14:40:59.214Z,97061.41
2022-12-31T14:43:21.564Z,97063.91
2022-12-31T14:45:42.015Z,97071.41
2022-12-31T14:47:56.608Z,97073.09
2022-12-31T14:50:12.325Z,97074.00
2022-12-31T14:52:35.365Z,97071.44
2022-12-31T14:54:41.557Z,97069.66
2022-12-31T14:56:48.558Z,97068.69
2022-12-31T14:59:00.356Z,97069.28
2022-12-31T15:01:09.108Z,97071.75
2022-12-31T15:03:31.794Z,97072.94
2022-12-31T15:05:40.351Z,97074.13
2022-12-31T15:08:09.035Z,97069.72
2022-12-31T15:10:24.404Z,97070.59
2022-12-31T15:12:59.201Z,97068.31
2022-12-31T15:15:29.432Z,97071.34
2022-12-31T15:17:51.176Z,97072.22
2022-12-31T15:21:01.588Z,97077.16
2022-12-31T15:23:22.718Z,97071.44
2022-12-31T15:25:41.231Z,97063.28
2022-12-31T15:27:50.412Z,97069.19
2022-12-31T15:29:55.867Z,97069.47
2022-12-31T15:32:06.214Z,97071.91
2022-12-31T15:34:29.666Z,97074.16
2022-12-31T15:36:38.250Z,97064.81
2022-12-31T15:38:47.378Z,97065.91
2022-12-31T15:40:55.293Z,97069.63
2022-12-31T15:43:12.022Z,97073.94
2022-12-31T15:45:25.239Z,97071.69
2022-12-31T15:47:33.366Z,97079.00
2022-12-31T15:49:44.953Z,97071.91
2022-12-31T15:51:56.213Z,97075.16
2022-12-31T15:54:07.919Z,97070.72
2022-12-31T15:56:22.290Z,97067.84
2022-12-31T15:58:35.845Z,97078.25
2022-12-31T16:01:04.140Z,97079.91
2022-12-31T16:03:25.814Z,97076.50
2022-12-31T16:05:31.578Z,97079.75
2022-12-31T16:07:37.242Z,97078.44
2022-12-31T16:09:45.613Z,97085.44
2022-12-31T16:11:51.798Z,97089.72
2022-12-31T16:13:59.658Z,97083.13
2022-12-31T16:16:10.477Z,97092.72
2022-12-31T16:18:22.507Z,97085.34
2022-12-31T16:20:32.842Z,97088.88
2022-12-31T16:22:42.319Z,97092.59
2022-12-31T16:27:22.582Z,97096.09
2022-12-31T16:29:28.293Z,97091.88
2022-12-31T16:31:34.400Z,97093.75
2022-12-31T16:33:39.642Z,97092.16
2022-12-31T16:35:44.868Z,97080.28
2022-12-31T16:37:50.454Z,97079.47
2022-12-31T16:40:24.174Z,97079.25
2022-12-31T16:42:31.180Z,97077.19
2022-12-31T16:44:36.584Z,97078.25
2022-12-31T16:46:41.898Z,97078.00
2022-12-31T16:48:51.383Z,97079.09
2022-12-31T16:50:59.055Z,97082.53
2022-12-31T16:53:09.559Z,97082.81
2022-12-31T16:55:24.018Z,97082.03
2022-12-31T16:57:33.545Z,97083.09
2022-12-31T16:59:46.448Z,97078.88
2022-12-31T17:01:52.434Z,97077.31
2022-12-31T17:04:04.222Z,97073.56
2022-12-31T17:06:18.755Z,97078.38
2022-12-31T17:08:28.095Z,97072.28
2022-12-31T17:10:39.588Z,97085.81
2022-12-31T17:15:23.218Z,97071.28
2022-12-31T17:17:33.186Z,97081.38
2022-12-31T17:19:45.102Z,97083.28
2022-12-31T17:21:51.424Z,97082.31
2022-12-31T17:24:02.175Z,97083.94
2022-12-31T17:26:14.994Z,97088.50
2022-12-31T17:28:26.159Z,97084.06
2022-12-31T17:30:43.546Z,97085.16
2022-12-31T17:32:50.173Z,97086.81
2022-12-31T17:34:55.338Z,97077.03
2022-12-31T17:37:21.378Z,97076.34
2022-12-31T17:39:27.949Z,97082.16
2022-12-31T17:41:35.994Z,97072.94
2022-12-31T17:43:42.676Z,97089.09
2022-12-31T17:45:49.714Z,97085.13
2022-12-31T17:47:57.050Z,97088.34
2022-12-31T17:50:07.571Z,97095.28
2022-12-31T17:52:17.129Z,97093.19
2022-12-31T17:54:23.183Z,97083.38
2022-12-31T17:56:28.595Z,97087.59
2022-12-31T17:58:41.292Z,97086.03
2022-12-31T18:00:46.631Z,97087.59
2022-12-31T18:02:51.972Z,97087.31
2022-12-31T18:04:57.260Z,97093.94
2022-12-31T18:07:02.720Z,97091.78
2022-12-31T18:09:07.937Z,97099.97
2022-12-31T18:11:19.892Z,97102.63
2022-12-31T18:13:28.406Z,97097.81
2022-12-31T18:15:36.358Z,97103.94
2022-12-31T18:17:41.855Z,97100.47
2022-12-31T18:22:18.544Z,97088.50
2022-12-31T18:24:26.151Z,97095.88
2022-12-31T18:26:33.109Z,97100.88
2022-12-31T18:28:38.477Z,97094.25
2022-12-31T18:30:47.176Z,97100.34
2022-12-31T18:32:52.456Z,97101.13
2022-12-31T18:34:57.724Z,97098.75
2022-12-31T18:37:02.928Z,97089.50
2022-12-31T18:39:08.052Z,97095.88
2022-12-31T18:41:21.944Z,97091.13
2022-12-31T18:43:28.255Z,97087.72
2022-12-31T18:45:33.434Z,97096.72
2022-12-31T18:47:41.356Z,97097.28
2022-12-31T18:49:48.683Z,97094.38
2022-12-31T18:51:55.256Z,97095.22
2022-12-31T18:54:00.550Z,97090.25
2022-12-31T18:56:06.222Z,97085.28
2022-12-31T18:58:13.648Z,97090.63
2022-12-31T19:00:20.031Z,97097.06
2022-12-31T19:02:25.304Z,97103.16
2022-12-31T19:04:33.512Z,97109.56
2022-12-31T19:06:38.691Z,97105.13
2022-12-31T19:08:43.982Z,97121.03
2022-12-31T19:10:51.081Z,97135.09
2022-12-31T19:12:56.721Z,97126.94
2022-12-31T19:15:01.963Z,97128.53
2022-12-31T19:19:11.280Z,97145.53
2022-12-31T19:21:23.784Z,97152.94
2022-12-31T19:23:29.092Z,97150.00
2022-12-31T19:25:37.874Z,97145.00
2022-12-31T19:27:43.004Z,97146.06
2022-12-31T19:29:48.181Z,97140.03
2022-12-31T19:31:53.775Z,97143.50
2022-12-31T19:33:59.046Z,97142.47
2022-12-31T19:36:04.284Z,97153.31
2022-12-31T19:38:20.797Z,97152.00
2022-12-31T19:40:29.125Z,97160.22
2022-12-31T19:42:34.477Z,97154.13
2022-12-31T19:44:40.118Z,97159.16
2022-12-31T19:46:45.402Z,97163.69
2022-12-31T19:48:50.890Z,97168.47
2022-12-31T19:50:57.385Z,97174.53
2022-12-31T19:53:02.766Z,97172.94
2022-12-31T19:55:14.911Z,97178.50
2022-12-31T19:57:19.998Z,97168.75
2022-12-31T19:59:25.212Z,97171.66
2022-12-31T20:01:30.577Z,97171.13
2022-12-31T20:03:36.173Z,97171.41
2022-12-31T20:05:41.767Z,97167.97
2022-12-31T20:07:46.903Z,97170.63
2022-12-31T20:09:52.059Z,97165.59
2022-12-31T20:11:59.808Z,97176.72
2022-12-31T20:14:05.012Z,97178.06
2022-12-31T20:16:11.993Z,97178.88
2022-12-31T20:18:21.151Z,97179.13
2022-12-31T20:20:29.140Z,97180.44
2022-12-31T20:22:34.309Z,97186.25
2022-12-31T20:24:39.603Z,97191.81
2022-12-31T20:26:44.745Z,97185.72
2022-12-31T20:28:53.150Z,97187.06
2022-12-31T20:30:58.463Z,97188.13
2022-12-31T20:33:03.663Z,97177.81
2022-12-31T20:35:10.297Z,97199.50
2022-12-31T20:37:15.527Z,97196.59
2022-12-31T20:39:21.069Z,97203.25
2022-12-31T20:41:27.384Z,97212.75
2022-12-31T20:43:34.283Z,97208.78
2022-12-31T20:45:45.405Z,97213.56
2022-12-31T20:47:50.525Z,97196.91
2022-12-31T20:50:12.486Z,97211.97
2022-12-31T20:52:18.111Z,97211.44
2022-12-31T20:54:23.440Z,97210.66
2022-12-31T20:56:31.409Z,97211.69
2022-12-31T20:58:36.947Z,97207.50
2022-12-31T21:00:44.652Z,97197.47
2022-12-31T21:03:00.300Z,97197.97
2022-12-31T21:05:12.903Z,97200.63
2022-12-31T21:07:18.235Z,97201.44
2022-12-31T21:09:23.610Z,97192.41
2022-12-31T21:11:42.045Z,97194.00
2022-12-31T21:13:47.131Z,97187.69
2022-12-31T21:15:56.765Z,97186.91
2022-12-31T21:18:03.017Z,97188.47
2022-12-31T21:20:11.044Z,97189.00
2022-12-31T21:22:16.328Z,97186.09
2022-12-31T21:24:24.086Z,97191.09
2022-12-31T21:26:29.630Z,97182.91
2022-12-31T21:28:35.418Z,97180.00
2022-12-31T21:30:42.072Z,97189.50
2022-12-31T21:32:50.194Z,97184.22
2022-12-31T21:35:31.456Z,97181.03
2022-12-31T21:37:20.621Z,97188.97
2022-12-31T21:39:25.729Z,97181.81
2022-12-31T21:41:43.430Z,97193.19
2022-12-31T21:43:48.708Z,97176.53
2022-12-31T21:46:04.349Z,97170.19
2022-12-31T21:48:25.334Z,97169.41
2022-12-31T21:50:30.563Z,97180.50
2022-12-31T21:52:36.185Z,97188.16
2022-12-31T21:54:53.817Z,97172.81
2022-12-31T21:56:58.891Z,97184.19
2022-12-31T21:59:16.554Z,97183.94
2022-12-31T22:01:36.769Z,97185.22
2022-12-31T22:03:44.936Z,97188.13
2022-12-31T22:05:54.281Z,97186.25
2022-12-31T22:07:59.479Z,97184.94
2022-12-31T22:10:04.838Z,97187.31
2022-12-31T22:12:10.613Z,97188.91
2022-12-31T22:14:15.888Z,97190.75
2022-12-31T22:16:22.265Z,97189.72
2022-12-31T22:18:27.839Z,97189.19
2022-12-31T22:20:35.568Z,97180.47
2022-12-31T22:22:40.778Z,97186.06
2022-12-31T22:24:46.079Z,97187.91
2022-12-31T22:26:52.227Z,97190.03
2022-12-31T22:28:59.592Z,97193.22
2022-12-31T22:31:04.907Z,97189.53
2022-12-31T22:33:10.384Z,97188.22
2022-12-31T22:35:15.786Z,97184.53
2022-12-31T22:37:55.081Z,97186.63
2022-12-31T22:39:48.675Z,97189.31
2022-12-31T22:41:53.828Z,97186.91
2022-12-31T22:44:04.734Z,97186.38
2022-12-31T22:46:15.487Z,97188.53
2022-12-31T22:48:20.694Z,97185.59
2022-12-31T22:50:25.932Z,97181.91
2022-12-31T22:52:34.367Z,97186.94
2022-12-31T22:54:39.502Z,97189.56
2022-12-31T22:56:44.635Z,97186.13
2022-12-31T22:58:50.421Z,97186.94
2022-12-31T23:00:56.309Z,97181.13
2022-12-31T23:03:01.407Z,97191.97
2022-12-31T23:05:14.827Z,97185.34
2022-12-31T23:07:21.181Z,97182.72
2022-12-31T23:09:41.419Z,97190.88
2022-12-31T23:11:46.575Z,97190.38
2022-12-31T23:14:04.251Z,97189.84
2022-12-31T23:16:23.118Z,97189.31
2022-12-31T23:18:40.771Z,97189.03
2022-12-31T23:20:58.411Z,97192.22
2022-12-31T23:23:11.523Z,97195.13
2022-12-31T23:25:19.795Z,97195.09
2022-12-31T23:27:24.947Z,97190.09
2022-12-31T23:29:30.196Z,97188.75
2022-12-31T23:31:35.318Z,97189.53
2022-12-31T23:33:40.626Z,97194.31
2022-12-31T23:35:45.757Z,97188.22
2022-12-31T23:37:50.929Z,97194.81
2022-12-31T23:39:56.008Z,97201.41
2022-12-31T23:42:04.103Z,97202.44
2022-12-31T23:44:09.402Z,97198.22
2022-12-31T23:46:15.199Z,97194.25
2022-12-31T23:48:20.364Z,97192.91
2022-12-31T23:50:26.006Z,97192.13
2022-12-31T23:52:31.270Z,97188.44
2022-12-31T23:54:36.785Z,97200.03
2022-12-31T23:56:42.247Z,97191.34
2022-12-31T23:58:50.488Z,97192.38
